sensor_id;sensor_type;location;lat;lon;timestamp;P1;durP1;ratioP1;P2;durP2;ratioP2
20956;SDS011;10637;47.970;7.830;2023-11-21T00:04:39;13.43;;;2.50;;
20956;SDS011;10637;47.970;7.830;2023-11-21T00:09:41;12.23;;;2.70;;
20956;SDS011;10637;47.970;7.830;2023-11-21T00:14:43;14.33;;;2.50;;
20956;SDS011;10637;47.970;7.830;2023-11-21T00:19:44;10.73;;;2.50;;
20956;SDS011;10637;47.970;7.830;2023-11-21T00:24:47;11.20;;;1.80;;
20956;SDS011;10637;47.970;7.830;2023-11-21T00:29:49;13.13;;;1.87;;
20956;SDS011;10637;47.970;7.830;2023-11-21T00:34:51;10.03;;;1.87;;
20956;SDS011;10637;47.970;7.830;2023-11-21T00:39:52;12.33;;;2.23;;
20956;SDS011;10637;47.970;7.830;2023-11-21T00:44:54;11.07;;;2.03;;
20956;SDS011;10637;47.970;7.830;2023-11-21T00:49:56;6.97;;;1.50;;
20956;SDS011;10637;47.970;7.830;2023-11-21T00:54:58;8.60;;;1.60;;
20956;SDS011;10637;47.970;7.830;2023-11-21T01:00:01;12.07;;;1.87;;
20956;SDS011;10637;47.970;7.830;2023-11-21T01:05:08;8.30;;;1.50;;
20956;SDS011;10637;47.970;7.830;2023-11-21T01:10:10;7.87;;;1.40;;
20956;SDS011;10637;47.970;7.830;2023-11-21T01:15:12;7.63;;;1.40;;
20956;SDS011;10637;47.970;7.830;2023-11-21T01:20:14;7.60;;;1.17;;
20956;SDS011;10637;47.970;7.830;2023-11-21T01:25:16;5.77;;;1.10;;
20956;SDS011;10637;47.970;7.830;2023-11-21T01:30:18;5.00;;;1.10;;
20956;SDS011;10637;47.970;7.830;2023-11-21T01:35:20;5.50;;;1.20;;
20956;SDS011;10637;47.970;7.830;2023-11-21T01:40:25;6.03;;;1.30;;
20956;SDS011;10637;47.970;7.830;2023-11-21T01:45:27;8.00;;;1.30;;
20956;SDS011;10637;47.970;7.830;2023-11-21T01:50:30;6.40;;;1.27;;
20956;SDS011;10637;47.970;7.830;2023-11-21T01:55:32;6.83;;;1.20;;
20956;SDS011;10637;47.970;7.830;2023-11-21T02:00:35;8.70;;;1.17;;
20956;SDS011;10637;47.970;7.830;2023-11-21T02:05:37;6.37;;;1.20;;
20956;SDS011;10637;47.970;7.830;2023-11-21T02:10:38;7.53;;;1.47;;
20956;SDS011;10637;47.970;7.830;2023-11-21T02:15:42;12.27;;;1.33;;
20956;SDS011;10637;47.970;7.830;2023-11-21T02:20:44;7.33;;;1.73;;
20956;SDS011;10637;47.970;7.830;2023-11-21T02:25:47;7.33;;;1.20;;
20956;SDS011;10637;47.970;7.830;2023-11-21T02:30:49;11.70;;;1.73;;
20956;SDS011;10637;47.970;7.830;2023-11-21T02:35:56;7.17;;;1.17;;
20956;SDS011;10637;47.970;7.830;2023-11-21T02:40:58;5.17;;;1.10;;
20956;SDS011;10637;47.970;7.830;2023-11-21T02:46:03;8.60;;;1.60;;
20956;SDS011;10637;47.970;7.830;2023-11-21T02:51:04;7.93;;;1.30;;
20956;SDS011;10637;47.970;7.830;2023-11-21T02:56:06;7.67;;;1.47;;
20956;SDS011;10637;47.970;7.830;2023-11-21T03:01:08;6.30;;;1.53;;
20956;SDS011;10637;47.970;7.830;2023-11-21T03:06:10;6.63;;;1.40;;
20956;SDS011;10637;47.970;7.830;2023-11-21T03:11:12;11.03;;;1.70;;
20956;SDS011;10637;47.970;7.830;2023-11-21T03:16:15;8.70;;;1.40;;
20956;SDS011;10637;47.970;7.830;2023-11-21T03:21:17;8.17;;;1.33;;
20956;SDS011;10637;47.970;7.830;2023-11-21T03:26:20;5.93;;;1.00;;
20956;SDS011;10637;47.970;7.830;2023-11-21T03:31:22;6.57;;;1.40;;
20956;SDS011;10637;47.970;7.830;2023-11-21T03:36:24;8.70;;;1.20;;
20956;SDS011;10637;47.970;7.830;2023-11-21T03:41:26;8.13;;;1.43;;
20956;SDS011;10637;47.970;7.830;2023-11-21T03:46:28;6.80;;;1.23;;
20956;SDS011;10637;47.970;7.830;2023-11-21T03:51:29;5.43;;;1.20;;
20956;SDS011;10637;47.970;7.830;2023-11-21T03:56:31;5.80;;;1.10;;
20956;SDS011;10637;47.970;7.830;2023-11-21T04:01:33;7.13;;;1.30;;
20956;SDS011;10637;47.970;7.830;2023-11-21T04:06:36;7.20;;;1.20;;
20956;SDS011;10637;47.970;7.830;2023-11-21T04:11:39;7.33;;;1.17;;
20956;SDS011;10637;47.970;7.830;2023-11-21T04:16:41;11.07;;;1.37;;
20956;SDS011;10637;47.970;7.830;2023-11-21T04:21:43;4.70;;;1.10;;
20956;SDS011;10637;47.970;7.830;2023-11-21T04:26:45;9.63;;;1.10;;
20956;SDS011;10637;47.970;7.830;2023-11-21T04:31:47;6.57;;;1.37;;
20956;SDS011;10637;47.970;7.830;2023-11-21T04:36:50;9.70;;;2.50;;
20956;SDS011;10637;47.970;7.830;2023-11-21T04:41:52;24.43;;;7.90;;
20956;SDS011;10637;47.970;7.830;2023-11-21T04:46:53;22.73;;;7.47;;
20956;SDS011;10637;47.970;7.830;2023-11-21T04:51:55;12.53;;;3.90;;
20956;SDS011;10637;47.970;7.830;2023-11-21T04:56:57;11.73;;;2.10;;
20956;SDS011;10637;47.970;7.830;2023-11-21T05:01:59;8.60;;;1.70;;
20956;SDS011;10637;47.970;7.830;2023-11-21T05:07:01;11.60;;;2.70;;
20956;SDS011;10637;47.970;7.830;2023-11-21T05:12:03;9.53;;;1.77;;
20956;SDS011;10637;47.970;7.830;2023-11-21T05:17:05;6.60;;;1.50;;
20956;SDS011;10637;47.970;7.830;2023-11-21T05:22:09;5.73;;;1.10;;
20956;SDS011;10637;47.970;7.830;2023-11-21T05:27:12;6.30;;;1.37;;
20956;SDS011;10637;47.970;7.830;2023-11-21T05:32:14;6.13;;;1.57;;
20956;SDS011;10637;47.970;7.830;2023-11-21T05:37:16;7.23;;;1.60;;
20956;SDS011;10637;47.970;7.830;2023-11-21T05:42:18;11.20;;;2.70;;
20956;SDS011;10637;47.970;7.830;2023-11-21T05:47:22;14.63;;;4.60;;
20956;SDS011;10637;47.970;7.830;2023-11-21T05:52:24;13.17;;;4.10;;
20956;SDS011;10637;47.970;7.830;2023-11-21T05:57:26;19.43;;;8.40;;
20956;SDS011;10637;47.970;7.830;2023-11-21T06:02:27;17.00;;;6.40;;
20956;SDS011;10637;47.970;7.830;2023-11-21T06:07:29;10.67;;;3.70;;
20956;SDS011;10637;47.970;7.830;2023-11-21T06:12:34;22.70;;;8.43;;
20956;SDS011;10637;47.970;7.830;2023-11-21T06:17:37;19.47;;;7.87;;
20956;SDS011;10637;47.970;7.830;2023-11-21T06:22:40;18.97;;;8.87;;
20956;SDS011;10637;47.970;7.830;2023-11-21T06:27:44;12.57;;;4.50;;
20956;SDS011;10637;47.970;7.830;2023-11-21T06:32:46;11.53;;;3.83;;
20956;SDS011;10637;47.970;7.830;2023-11-21T06:37:49;12.23;;;4.43;;
20956;SDS011;10637;47.970;7.830;2023-11-21T06:42:52;18.87;;;7.23;;
20956;SDS011;10637;47.970;7.830;2023-11-21T06:47:54;14.50;;;5.20;;
20956;SDS011;10637;47.970;7.830;2023-11-21T06:52:56;12.63;;;5.23;;
20956;SDS011;10637;47.970;7.830;2023-11-21T06:57:58;20.87;;;7.67;;
20956;SDS011;10637;47.970;7.830;2023-11-21T07:03:01;26.20;;;10.00;;
20956;SDS011;10637;47.970;7.830;2023-11-21T07:08:03;16.17;;;6.87;;
20956;SDS011;10637;47.970;7.830;2023-11-21T07:13:05;14.67;;;5.37;;
20956;SDS011;10637;47.970;7.830;2023-11-21T07:18:08;13.90;;;5.20;;
20956;SDS011;10637;47.970;7.830;2023-11-21T07:23:10;10.77;;;4.97;;
20956;SDS011;10637;47.970;7.830;2023-11-21T07:28:11;8.83;;;3.33;;
20956;SDS011;10637;47.970;7.830;2023-11-21T07:33:13;9.10;;;2.97;;
20956;SDS011;10637;47.970;7.830;2023-11-21T07:38:15;52.53;;;18.90;;
20956;SDS011;10637;47.970;7.830;2023-11-21T07:43:16;38.70;;;15.17;;
20956;SDS011;10637;47.970;7.830;2023-11-21T07:48:20;13.37;;;5.57;;
20956;SDS011;10637;47.970;7.830;2023-11-21T07:53:22;9.07;;;3.20;;
20956;SDS011;10637;47.970;7.830;2023-11-21T07:58:24;105.63;;;39.73;;
20956;SDS011;10637;47.970;7.830;2023-11-21T08:03:26;36.47;;;14.80;;
20956;SDS011;10637;47.970;7.830;2023-11-21T08:08:28;19.93;;;6.47;;
20956;SDS011;10637;47.970;7.830;2023-11-21T08:13:30;77.00;;;32.27;;
20956;SDS011;10637;47.970;7.830;2023-11-21T08:18:32;48.00;;;19.70;;
20956;SDS011;10637;47.970;7.830;2023-11-21T08:23:35;29.63;;;11.37;;
20956;SDS011;10637;47.970;7.830;2023-11-21T08:28:36;11.27;;;3.57;;
20956;SDS011;10637;47.970;7.830;2023-11-21T08:33:38;20.70;;;6.43;;
20956;SDS011;10637;47.970;7.830;2023-11-21T08:38:40;13.23;;;4.63;;
20956;SDS011;10637;47.970;7.830;2023-11-21T08:43:42;12.10;;;3.80;;
20956;SDS011;10637;47.970;7.830;2023-11-21T08:48:44;9.97;;;3.23;;
20956;SDS011;10637;47.970;7.830;2023-11-21T08:53:45;8.57;;;2.20;;
20956;SDS011;10637;47.970;7.830;2023-11-21T08:58:48;7.20;;;1.93;;
20956;SDS011;10637;47.970;7.830;2023-11-21T09:03:51;5.70;;;1.50;;
20956;SDS011;10637;47.970;7.830;2023-11-21T09:08:53;9.03;;;1.50;;
20956;SDS011;10637;47.970;7.830;2023-11-21T09:13:55;21.43;;;6.83;;
20956;SDS011;10637;47.970;7.830;2023-11-21T09:18:59;5.50;;;1.33;;
20956;SDS011;10637;47.970;7.830;2023-11-21T09:24:03;7.40;;;1.60;;
20956;SDS011;10637;47.970;7.830;2023-11-21T09:29:05;7.90;;;2.37;;
20956;SDS011;10637;47.970;7.830;2023-11-21T09:34:07;9.57;;;2.63;;
20956;SDS011;10637;47.970;7.830;2023-11-21T09:39:08;13.20;;;3.63;;
20956;SDS011;10637;47.970;7.830;2023-11-21T09:44:11;7.57;;;2.07;;
20956;SDS011;10637;47.970;7.830;2023-11-21T09:49:15;6.50;;;1.83;;
20956;SDS011;10637;47.970;7.830;2023-11-21T09:54:23;4.67;;;1.30;;
20956;SDS011;10637;47.970;7.830;2023-11-21T09:59:27;6.27;;;1.83;;
20956;SDS011;10637;47.970;7.830;2023-11-21T10:04:32;8.40;;;1.70;;
20956;SDS011;10637;47.970;7.830;2023-11-21T10:09:36;5.00;;;1.37;;
20956;SDS011;10637;47.970;7.830;2023-11-21T10:14:39;4.93;;;1.30;;
20956;SDS011;10637;47.970;7.830;2023-11-21T10:19:43;5.00;;;1.40;;
20956;SDS011;10637;47.970;7.830;2023-11-21T10:24:48;11.00;;;2.73;;
20956;SDS011;10637;47.970;7.830;2023-11-21T10:29:54;13.00;;;7.07;;
20956;SDS011;10637;47.970;7.830;2023-11-21T10:34:56;7.90;;;2.90;;
20956;SDS011;10637;47.970;7.830;2023-11-21T10:39:59;8.50;;;2.77;;
20956;SDS011;10637;47.970;7.830;2023-11-21T10:45:00;6.37;;;1.77;;
20956;SDS011;10637;47.970;7.830;2023-11-21T10:50:05;6.10;;;1.50;;
20956;SDS011;10637;47.970;7.830;2023-11-21T10:55:16;5.10;;;1.60;;
20956;SDS011;10637;47.970;7.830;2023-11-21T11:00:20;8.30;;;1.90;;
20956;SDS011;10637;47.970;7.830;2023-11-21T11:05:23;9.70;;;3.27;;
20956;SDS011;10637;47.970;7.830;2023-11-21T11:10:29;11.47;;;3.57;;
20956;SDS011;10637;47.970;7.830;2023-11-21T11:15:31;8.00;;;2.40;;
20956;SDS011;10637;47.970;7.830;2023-11-21T11:20:34;7.73;;;2.10;;
20956;SDS011;10637;47.970;7.830;2023-11-21T11:25:53;10.60;;;3.07;;
20956;SDS011;10637;47.970;7.830;2023-11-21T11:36:17;6.77;;;1.90;;
20956;SDS011;10637;47.970;7.830;2023-11-21T11:41:43;9.37;;;2.20;;
20956;SDS011;10637;47.970;7.830;2023-11-21T11:46:45;8.77;;;2.50;;
20956;SDS011;10637;47.970;7.830;2023-11-21T11:51:47;8.60;;;2.50;;
20956;SDS011;10637;47.970;7.830;2023-11-21T11:56:49;7.30;;;2.50;;
20956;SDS011;10637;47.970;7.830;2023-11-21T12:01:53;7.73;;;3.10;;
20956;SDS011;10637;47.970;7.830;2023-11-21T12:06:59;9.67;;;3.37;;
20956;SDS011;10637;47.970;7.830;2023-11-21T12:12:04;8.93;;;2.90;;
20956;SDS011;10637;47.970;7.830;2023-11-21T12:17:06;12.53;;;3.90;;
20956;SDS011;10637;47.970;7.830;2023-11-21T12:22:08;7.90;;;2.60;;
20956;SDS011;10637;47.970;7.830;2023-11-21T12:27:10;7.80;;;2.37;;
20956;SDS011;10637;47.970;7.830;2023-11-21T12:32:12;8.77;;;2.63;;
20956;SDS011;10637;47.970;7.830;2023-11-21T12:37:17;7.10;;;2.80;;
20956;SDS011;10637;47.970;7.830;2023-11-21T12:42:19;8.23;;;2.63;;
20956;SDS011;10637;47.970;7.830;2023-11-21T12:47:22;9.67;;;3.83;;
20956;SDS011;10637;47.970;7.830;2023-11-21T12:52:23;8.93;;;2.80;;
20956;SDS011;10637;47.970;7.830;2023-11-21T12:57:26;10.27;;;3.93;;
20956;SDS011;10637;47.970;7.830;2023-11-21T13:02:30;11.13;;;4.10;;
20956;SDS011;10637;47.970;7.830;2023-11-21T13:07:40;8.50;;;3.53;;
20956;SDS011;10637;47.970;7.830;2023-11-21T13:12:48;13.00;;;5.70;;
20956;SDS011;10637;47.970;7.830;2023-11-21T13:17:53;13.87;;;9.03;;
20956;SDS011;10637;47.970;7.830;2023-11-21T13:22:57;8.93;;;4.10;;
20956;SDS011;10637;47.970;7.830;2023-11-21T13:28:00;10.37;;;4.60;;
20956;SDS011;10637;47.970;7.830;2023-11-21T13:33:03;29.00;;;16.67;;
20956;SDS011;10637;47.970;7.830;2023-11-21T13:38:09;8.20;;;3.60;;
20956;SDS011;10637;47.970;7.830;2023-11-21T13:43:13;8.17;;;3.20;;
20956;SDS011;10637;47.970;7.830;2023-11-21T13:48:17;11.07;;;5.80;;
20956;SDS011;10637;47.970;7.830;2023-11-21T13:53:26;8.33;;;2.97;;
20956;SDS011;10637;47.970;7.830;2023-11-21T13:58:28;11.37;;;3.33;;
20956;SDS011;10637;47.970;7.830;2023-11-21T14:03:45;8.10;;;3.10;;
20956;SDS011;10637;47.970;7.830;2023-11-21T14:08:53;13.37;;;6.40;;
20956;SDS011;10637;47.970;7.830;2023-11-21T14:13:57;9.33;;;3.83;;
20956;SDS011;10637;47.970;7.830;2023-11-21T14:19:00;10.10;;;3.73;;
20956;SDS011;10637;47.970;7.830;2023-11-21T14:24:17;12.43;;;4.83;;
20956;SDS011;10637;47.970;7.830;2023-11-21T14:29:19;14.97;;;5.27;;
20956;SDS011;10637;47.970;7.830;2023-11-21T14:34:22;8.73;;;4.07;;
20956;SDS011;10637;47.970;7.830;2023-11-21T14:39:24;9.50;;;4.40;;
20956;SDS011;10637;47.970;7.830;2023-11-21T14:44:29;11.60;;;5.10;;
20956;SDS011;10637;47.970;7.830;2023-11-21T14:49:36;15.83;;;7.13;;
20956;SDS011;10637;47.970;7.830;2023-11-21T14:54:53;12.33;;;5.00;;
20956;SDS011;10637;47.970;7.830;2023-11-21T15:00:15;9.70;;;4.40;;
20956;SDS011;10637;47.970;7.830;2023-11-21T15:05:32;13.83;;;5.83;;
20956;SDS011;10637;47.970;7.830;2023-11-21T15:10:36;10.40;;;4.60;;
20956;SDS011;10637;47.970;7.830;2023-11-21T15:15:49;12.43;;;5.70;;
20956;SDS011;10637;47.970;7.830;2023-11-21T15:20:53;11.23;;;5.97;;
20956;SDS011;10637;47.970;7.830;2023-11-21T15:25:56;10.20;;;5.20;;
20956;SDS011;10637;47.970;7.830;2023-11-21T15:30:58;10.80;;;5.53;;
20956;SDS011;10637;47.970;7.830;2023-11-21T15:36:01;12.40;;;6.60;;
20956;SDS011;10637;47.970;7.830;2023-11-21T15:41:03;12.33;;;4.93;;
20956;SDS011;10637;47.970;7.830;2023-11-21T15:46:06;12.27;;;5.67;;
20956;SDS011;10637;47.970;7.830;2023-11-21T15:51:09;10.30;;;4.33;;
20956;SDS011;10637;47.970;7.830;2023-11-21T15:56:13;12.50;;;5.27;;
20956;SDS011;10637;47.970;7.830;2023-11-21T16:01:16;12.00;;;4.63;;
20956;SDS011;10637;47.970;7.830;2023-11-21T16:06:18;17.90;;;6.73;;
20956;SDS011;10637;47.970;7.830;2023-11-21T16:11:19;11.40;;;4.73;;
20956;SDS011;10637;47.970;7.830;2023-11-21T16:16:21;12.37;;;6.67;;
20956;SDS011;10637;47.970;7.830;2023-11-21T16:21:23;14.03;;;9.00;;
20956;SDS011;10637;47.970;7.830;2023-11-21T16:26:26;10.87;;;5.50;;
20956;SDS011;10637;47.970;7.830;2023-11-21T16:31:28;11.87;;;5.80;;
20956;SDS011;10637;47.970;7.830;2023-11-21T16:36:30;9.90;;;4.57;;
20956;SDS011;10637;47.970;7.830;2023-11-21T16:41:32;9.50;;;4.23;;
20956;SDS011;10637;47.970;7.830;2023-11-21T16:46:33;13.37;;;4.57;;
20956;SDS011;10637;47.970;7.830;2023-11-21T16:51:35;11.40;;;4.57;;
20956;SDS011;10637;47.970;7.830;2023-11-21T16:56:37;12.50;;;5.67;;
20956;SDS011;10637;47.970;7.830;2023-11-21T17:01:39;10.60;;;5.57;;
20956;SDS011;10637;47.970;7.830;2023-11-21T17:06:41;10.77;;;5.40;;
20956;SDS011;10637;47.970;7.830;2023-11-21T17:11:48;11.13;;;5.67;;
20956;SDS011;10637;47.970;7.830;2023-11-21T17:16:50;10.93;;;6.00;;
20956;SDS011;10637;47.970;7.830;2023-11-21T17:21:52;10.73;;;5.77;;
20956;SDS011;10637;47.970;7.830;2023-11-21T17:26:54;12.50;;;7.00;;
20956;SDS011;10637;47.970;7.830;2023-11-21T17:31:56;14.87;;;7.50;;
20956;SDS011;10637;47.970;7.830;2023-11-21T17:36:58;13.30;;;7.60;;
20956;SDS011;10637;47.970;7.830;2023-11-21T17:42:01;16.07;;;8.90;;
20956;SDS011;10637;47.970;7.830;2023-11-21T17:47:02;15.03;;;8.70;;
20956;SDS011;10637;47.970;7.830;2023-11-21T17:52:05;14.40;;;8.83;;
20956;SDS011;10637;47.970;7.830;2023-11-21T17:57:07;16.60;;;8.93;;
20956;SDS011;10637;47.970;7.830;2023-11-21T18:02:09;15.90;;;9.63;;
20956;SDS011;10637;47.970;7.830;2023-11-21T18:07:11;22.07;;;15.50;;
20956;SDS011;10637;47.970;7.830;2023-11-21T18:12:14;18.70;;;11.20;;
20956;SDS011;10637;47.970;7.830;2023-11-21T18:17:16;25.03;;;13.93;;
20956;SDS011;10637;47.970;7.830;2023-11-21T18:22:18;18.10;;;11.43;;
20956;SDS011;10637;47.970;7.830;2023-11-21T18:27:22;19.43;;;11.70;;
20956;SDS011;10637;47.970;7.830;2023-11-21T18:32:29;19.23;;;11.80;;
20956;SDS011;10637;47.970;7.830;2023-11-21T18:37:31;21.40;;;13.07;;
20956;SDS011;10637;47.970;7.830;2023-11-21T18:42:33;20.37;;;12.63;;
20956;SDS011;10637;47.970;7.830;2023-11-21T18:47:35;20.17;;;12.80;;
20956;SDS011;10637;47.970;7.830;2023-11-21T18:52:37;21.43;;;12.57;;
20956;SDS011;10637;47.970;7.830;2023-11-21T18:57:38;22.50;;;12.40;;
20956;SDS011;10637;47.970;7.830;2023-11-21T19:02:41;22.40;;;12.93;;
20956;SDS011;10637;47.970;7.830;2023-11-21T19:07:44;23.90;;;14.03;;
20956;SDS011;10637;47.970;7.830;2023-11-21T19:12:46;20.20;;;13.03;;
20956;SDS011;10637;47.970;7.830;2023-11-21T19:17:48;19.20;;;11.50;;
20956;SDS011;10637;47.970;7.830;2023-11-21T19:22:50;20.07;;;12.60;;
20956;SDS011;10637;47.970;7.830;2023-11-21T19:27:52;20.33;;;12.30;;
20956;SDS011;10637;47.970;7.830;2023-11-21T19:32:54;22.27;;;12.93;;
20956;SDS011;10637;47.970;7.830;2023-11-21T19:37:56;17.87;;;10.07;;
20956;SDS011;10637;47.970;7.830;2023-11-21T19:43:01;18.13;;;10.10;;
20956;SDS011;10637;47.970;7.830;2023-11-21T19:48:06;17.93;;;10.73;;
20956;SDS011;10637;47.970;7.830;2023-11-21T19:53:10;26.07;;;12.60;;
20956;SDS011;10637;47.970;7.830;2023-11-21T19:58:12;13.03;;;6.70;;
20956;SDS011;10637;47.970;7.830;2023-11-21T20:03:18;16.63;;;8.40;;
20956;SDS011;10637;47.970;7.830;2023-11-21T20:08:21;22.93;;;10.40;;
20956;SDS011;10637;47.970;7.830;2023-11-21T20:13:23;16.33;;;8.17;;
20956;SDS011;10637;47.970;7.830;2023-11-21T20:18:25;14.97;;;9.07;;
20956;SDS011;10637;47.970;7.830;2023-11-21T20:23:27;14.67;;;7.73;;
20956;SDS011;10637;47.970;7.830;2023-11-21T20:28:32;15.73;;;8.90;;
20956;SDS011;10637;47.970;7.830;2023-11-21T20:33:34;16.77;;;8.63;;
20956;SDS011;10637;47.970;7.830;2023-11-21T20:38:36;17.33;;;9.40;;
20956;SDS011;10637;47.970;7.830;2023-11-21T20:43:38;19.83;;;12.03;;
20956;SDS011;10637;47.970;7.830;2023-11-21T20:48:40;23.07;;;14.57;;
20956;SDS011;10637;47.970;7.830;2023-11-21T20:53:42;22.30;;;14.33;;
20956;SDS011;10637;47.970;7.830;2023-11-21T20:58:44;24.40;;;14.00;;
20956;SDS011;10637;47.970;7.830;2023-11-21T21:03:46;27.93;;;15.17;;
20956;SDS011;10637;47.970;7.830;2023-11-21T21:08:48;28.67;;;18.63;;
20956;SDS011;10637;47.970;7.830;2023-11-21T21:13:50;25.10;;;14.83;;
20956;SDS011;10637;47.970;7.830;2023-11-21T21:18:54;22.87;;;13.77;;
20956;SDS011;10637;47.970;7.830;2023-11-21T21:23:57;23.20;;;13.53;;
20956;SDS011;10637;47.970;7.830;2023-11-21T21:29:00;25.97;;;13.60;;
20956;SDS011;10637;47.970;7.830;2023-11-21T21:34:02;28.17;;;15.07;;
20956;SDS011;10637;47.970;7.830;2023-11-21T21:39:04;29.30;;;14.40;;
20956;SDS011;10637;47.970;7.830;2023-11-21T21:44:06;27.00;;;15.70;;
20956;SDS011;10637;47.970;7.830;2023-11-21T21:49:09;28.17;;;15.27;;
20956;SDS011;10637;47.970;7.830;2023-11-21T21:54:10;28.17;;;15.00;;
20956;SDS011;10637;47.970;7.830;2023-11-21T21:59:12;29.87;;;14.63;;
20956;SDS011;10637;47.970;7.830;2023-11-21T22:04:14;26.03;;;15.57;;
20956;SDS011;10637;47.970;7.830;2023-11-21T22:09:16;33.73;;;19.00;;
20956;SDS011;10637;47.970;7.830;2023-11-21T22:14:18;30.93;;;17.13;;
20956;SDS011;10637;47.970;7.830;2023-11-21T22:19:20;26.50;;;15.03;;
20956;SDS011;10637;47.970;7.830;2023-11-21T22:24:22;29.60;;;15.27;;
20956;SDS011;10637;47.970;7.830;2023-11-21T22:29:24;29.73;;;15.73;;
20956;SDS011;10637;47.970;7.830;2023-11-21T22:34:26;29.67;;;14.23;;
20956;SDS011;10637;47.970;7.830;2023-11-21T22:39:28;24.83;;;14.00;;
20956;SDS011;10637;47.970;7.830;2023-11-21T22:44:29;31.03;;;15.10;;
20956;SDS011;10637;47.970;7.830;2023-11-21T22:49:31;26.60;;;14.67;;
20956;SDS011;10637;47.970;7.830;2023-11-21T22:54:33;28.43;;;14.30;;
20956;SDS011;10637;47.970;7.830;2023-11-21T22:59:34;32.27;;;14.63;;
20956;SDS011;10637;47.970;7.830;2023-11-21T23:04:36;29.70;;;14.33;;
20956;SDS011;10637;47.970;7.830;2023-11-21T23:09:39;26.83;;;13.97;;
20956;SDS011;10637;47.970;7.830;2023-11-21T23:14:40;23.17;;;14.73;;
20956;SDS011;10637;47.970;7.830;2023-11-21T23:19:42;31.63;;;15.27;;
20956;SDS011;10637;47.970;7.830;2023-11-21T23:24:54;25.23;;;14.13;;
20956;SDS011;10637;47.970;7.830;2023-11-21T23:29:55;25.90;;;14.37;;
20956;SDS011;10637;47.970;7.830;2023-11-21T23:34:57;24.77;;;14.73;;
20956;SDS011;10637;47.970;7.830;2023-11-21T23:39:59;27.50;;;14.33;;
20956;SDS011;10637;47.970;7.830;2023-11-21T23:45:03;30.37;;;14.80;;
20956;SDS011;10637;47.970;7.830;2023-11-21T23:50:05;26.83;;;14.77;;
20956;SDS011;10637;47.970;7.830;2023-11-21T23:55:07;30.60;;;14.67;;
